createdAt,value
2022-10-30T00:00:49.784Z,47.25
2022-10-30T00:03:14.590Z,43.33
2022-10-30T00:05:38.238Z,47.78
2022-10-30T00:08:02.090Z,47.47
2022-10-30T00:10:26.699Z,44.22
2022-10-30T00:12:51.687Z,49.95
2022-10-30T00:15:15.422Z,46.92
2022-10-30T00:17:39.014Z,46.88
2022-10-30T00:20:02.549Z,47.13
2022-10-30T00:22:26.297Z,47.08
2022-10-30T00:24:50.130Z,48.22
2022-10-30T00:27:13.690Z,47.40
2022-10-30T00:29:38.801Z,41.78
2022-10-30T00:32:02.518Z,44.55
2022-10-30T00:34:26.142Z,48.53
2022-10-30T00:36:49.792Z,47.05
2022-10-30T00:39:13.478Z,44.97
2022-10-30T00:41:39.545Z,45.83
2022-10-30T00:44:03.102Z,45.75
2022-10-30T00:46:32.833Z,45.10
2022-10-30T00:48:59.751Z,47.53
2022-10-30T00:51:23.907Z,49.47
2022-10-30T00:53:49.472Z,51.33
2022-10-30T00:56:14.240Z,48.35
2022-10-30T00:58:41.676Z,47.33
2022-10-30T01:01:09.469Z,39.97
2022-10-30T01:03:36.584Z,48.75
2022-10-30T01:06:07.537Z,45.63
2022-10-30T01:08:32.027Z,46.70
2022-10-30T01:10:55.904Z,46.30
2022-10-30T01:13:21.595Z,44.88
2022-10-30T01:16:14.442Z,46.92
2022-10-30T01:18:51.014Z,46.85
2022-10-30T01:21:32.259Z,49.15
2022-10-30T01:24:13.528Z,48.88
2022-10-30T01:26:45.984Z,48.15
2022-10-30T01:29:28.157Z,46.78
2022-10-30T01:32:14.057Z,49.80
2022-10-30T01:34:54.589Z,41.97
2022-10-30T01:37:27.438Z,50.13
2022-10-30T01:39:51.855Z,41.72
2022-10-30T01:42:54.969Z,43.00
2022-10-30T01:45:37.421Z,50.15
2022-10-30T01:48:49.173Z,49.17
2022-10-30T01:51:26.076Z,51.58
2022-10-30T01:53:59.354Z,48.47
2022-10-30T01:56:37.036Z,42.85
2022-10-30T01:59:12.694Z,43.17
2022-10-30T02:01:37.861Z,44.22
2022-10-30T02:06:32.769Z,45.85
2022-10-30T02:08:57.623Z,47.30
2022-10-30T02:11:21.708Z,49.25
2022-10-30T02:13:45.557Z,48.80
2022-10-30T02:16:11.269Z,47.10
2022-10-30T02:18:34.885Z,47.10
2022-10-30T02:21:00.915Z,44.78
2022-10-30T02:23:24.443Z,49.60
2022-10-30T02:25:48.131Z,48.50
2022-10-30T02:28:11.659Z,45.03
2022-10-30T02:30:35.382Z,49.10
2022-10-30T02:32:59.201Z,53.38
2022-10-30T02:35:23.310Z,49.85
2022-10-30T02:37:51.232Z,49.20
2022-10-30T02:40:15.193Z,51.13
2022-10-30T02:42:38.709Z,47.22
2022-10-30T02:45:02.289Z,51.97
2022-10-30T02:47:25.917Z,50.60
2022-10-30T02:49:49.545Z,50.80
2022-10-30T02:52:13.173Z,46.47
2022-10-30T02:54:40.081Z,48.35
2022-10-30T02:57:03.768Z,44.63
2022-10-30T02:59:27.437Z,43.45
2022-10-30T03:01:51.216Z,48.78
2022-10-30T03:04:15.187Z,42.15
2022-10-30T03:06:39.947Z,50.40
2022-10-30T03:09:03.613Z,49.60
2022-10-30T03:11:28.724Z,48.00
2022-10-30T03:13:52.708Z,49.60
2022-10-30T03:16:21.184Z,49.65
2022-10-30T03:18:45.554Z,47.47
2022-10-30T03:21:12.088Z,52.22
2022-10-30T03:23:36.586Z,50.15
2022-10-30T03:26:01.299Z,49.17
2022-10-30T03:28:30.729Z,45.08
2022-10-30T03:31:00.546Z,47.50
2022-10-30T03:33:24.409Z,44.38
2022-10-30T03:35:47.979Z,45.15
2022-10-30T03:38:11.621Z,44.65
2022-10-30T03:40:35.133Z,43.28
2022-10-30T03:42:58.945Z,45.70
2022-10-30T03:45:24.282Z,48.15
2022-10-30T03:47:47.865Z,50.45
2022-10-30T03:50:11.662Z,39.80
2022-10-30T03:52:35.769Z,49.17
2022-10-30T03:54:59.291Z,45.78
2022-10-30T03:57:22.918Z,47.58
2022-10-30T04:00:00.566Z,47.38
2022-10-30T04:02:38.681Z,51.83
2022-10-30T04:05:02.366Z,48.63
2022-10-30T04:07:25.909Z,50.45
2022-10-30T04:09:49.910Z,45.20
2022-10-30T04:12:13.478Z,49.92
2022-10-30T04:14:37.068Z,49.95
2022-10-30T04:17:00.659Z,47.58
2022-10-30T04:19:25.634Z,43.90
2022-10-30T04:21:51.303Z,49.70
2022-10-30T04:24:18.732Z,46.40
2022-10-30T04:26:44.889Z,46.97
2022-10-30T04:29:08.628Z,43.58
2022-10-30T04:31:32.122Z,45.63
2022-10-30T04:33:55.735Z,46.10
2022-10-30T04:36:21.998Z,49.22
2022-10-30T04:38:46.073Z,45.65
2022-10-30T04:41:10.007Z,45.15
2022-10-30T04:43:44.356Z,48.22
2022-10-30T04:46:08.107Z,47.90
2022-10-30T04:48:31.647Z,45.17
2022-10-30T04:50:55.206Z,48.10
2022-10-30T04:53:22.832Z,45.17
2022-10-30T04:55:55.550Z,46.92
2022-10-30T04:58:19.167Z,46.28
2022-10-30T05:00:48.286Z,45.53
2022-10-30T05:03:20.129Z,46.85
2022-10-30T05:05:43.769Z,46.90
2022-10-30T05:08:07.413Z,46.17
2022-10-30T05:10:32.434Z,46.33
2022-10-30T05:12:55.962Z,51.38
2022-10-30T05:15:19.559Z,47.97
2022-10-30T05:17:44.644Z,46.42
2022-10-30T05:20:10.544Z,44.45
2022-10-30T05:22:35.773Z,46.28
2022-10-30T05:24:59.695Z,46.50
2022-10-30T05:27:24.707Z,46.90
2022-10-30T05:29:48.376Z,43.28
2022-10-30T05:34:44.502Z,46.70
2022-10-30T05:37:09.032Z,44.75
2022-10-30T05:39:33.155Z,45.72
2022-10-30T05:41:56.776Z,44.20
2022-10-30T05:44:40.772Z,41.33
2022-10-30T05:47:12.266Z,43.25
2022-10-30T05:49:39.401Z,43.42
2022-10-30T05:52:08.474Z,43.22
2022-10-30T05:54:32.573Z,43.95
2022-10-30T05:57:10.924Z,43.08
2022-10-30T05:59:37.653Z,43.72
2022-10-30T06:02:01.234Z,45.72
2022-10-30T06:04:24.981Z,46.65
2022-10-30T06:06:48.702Z,46.22
2022-10-30T06:09:12.298Z,46.05
2022-10-30T06:12:08.434Z,43.45
2022-10-30T06:14:56.430Z,45.67
2022-10-30T06:17:20.165Z,44.20
2022-10-30T06:19:51.481Z,47.10
2022-10-30T06:22:32.944Z,43.00
2022-10-30T06:25:01.347Z,44.05
2022-10-30T06:27:43.291Z,43.00
2022-10-30T06:30:09.882Z,43.67
2022-10-30T06:32:33.651Z,45.67
2022-10-30T06:34:57.736Z,43.05
2022-10-30T06:37:21.565Z,47.05
2022-10-30T06:39:45.578Z,45.25
2022-10-30T06:42:34.940Z,43.28
2022-10-30T06:45:04.987Z,41.67
2022-10-30T06:47:30.389Z,43.55
2022-10-30T06:49:54.439Z,43.45
2022-10-30T06:52:19.388Z,43.40
2022-10-30T06:54:43.022Z,41.05
2022-10-30T06:57:25.297Z,43.22
2022-10-30T07:00:09.813Z,42.65
2022-10-30T07:03:04.622Z,43.85
2022-10-30T07:05:28.913Z,44.03
2022-10-30T07:07:52.439Z,42.33
2022-10-30T07:10:16.311Z,40.22
2022-10-30T07:13:03.035Z,41.63
2022-10-30T07:15:40.021Z,41.60
2022-10-30T07:18:18.812Z,39.33
2022-10-30T07:20:44.495Z,38.95
2022-10-30T07:23:08.046Z,41.45
2022-10-30T07:25:31.841Z,39.25
2022-10-30T07:28:04.504Z,35.75
2022-10-30T07:30:39.082Z,33.25
2022-10-30T07:33:12.753Z,34.40
2022-10-30T07:35:55.091Z,33.20
2022-10-30T07:38:40.830Z,33.70
2022-10-30T07:41:20.410Z,34.88
2022-10-30T07:43:47.591Z,32.88
2022-10-30T07:46:39.998Z,31.52
2022-10-30T07:49:18.838Z,30.98
2022-10-30T07:51:48.020Z,29.88
2022-10-30T07:54:12.000Z,30.40
2022-10-30T07:56:35.657Z,29.02
2022-10-30T07:59:17.501Z,26.63
2022-10-30T08:02:01.962Z,25.10
2022-10-30T08:04:33.525Z,21.55
2022-10-30T08:07:08.311Z,19.75
2022-10-30T08:09:31.894Z,19.80
2022-10-30T08:11:55.416Z,17.35
2022-10-30T08:14:19.091Z,18.05
2022-10-30T08:16:42.657Z,18.58
2022-10-30T08:19:06.619Z,17.95
2022-10-30T08:21:30.372Z,17.35
2022-10-30T08:24:03.420Z,17.48
2022-10-30T08:26:29.574Z,17.30
2022-10-30T08:28:53.231Z,16.58
2022-10-30T08:31:17.202Z,15.50
2022-10-30T08:33:58.687Z,16.17
2022-10-30T08:36:26.592Z,14.60
2022-10-30T08:38:50.111Z,14.55
2022-10-30T08:41:35.385Z,13.63
2022-10-30T08:43:59.025Z,14.35
2022-10-30T08:46:29.267Z,13.13
2022-10-30T08:48:54.982Z,13.38
2022-10-30T08:51:19.022Z,13.23
2022-10-30T08:53:43.199Z,13.68
2022-10-30T08:56:10.380Z,13.95
2022-10-30T08:58:49.086Z,12.90
2022-10-30T09:01:12.961Z,12.30
2022-10-30T09:04:09.211Z,11.68
2022-10-30T09:06:51.050Z,10.52
2022-10-30T09:09:33.037Z,10.25
2022-10-30T09:11:59.235Z,10.13
2022-10-30T09:14:24.525Z,9.88
2022-10-30T09:16:48.148Z,9.20
2022-10-30T09:19:18.629Z,9.18
2022-10-30T09:21:43.189Z,9.18
2022-10-30T09:24:07.607Z,9.10
2022-10-30T09:26:31.379Z,8.82
2022-10-30T09:29:05.566Z,9.48
2022-10-30T09:31:58.506Z,8.48
2022-10-30T09:34:23.483Z,8.50
2022-10-30T09:36:55.755Z,8.45
2022-10-30T09:39:20.237Z,8.63
2022-10-30T09:42:11.173Z,8.15
2022-10-30T09:44:56.494Z,8.85
2022-10-30T09:47:43.505Z,8.40
2022-10-30T09:50:23.096Z,7.75
2022-10-30T09:53:02.746Z,7.95
2022-10-30T09:55:36.816Z,8.25
2022-10-30T09:58:13.107Z,8.65
2022-10-30T10:00:41.343Z,7.93
2022-10-30T10:03:35.455Z,7.57
2022-10-30T10:06:21.628Z,7.60
2022-10-30T10:09:03.189Z,6.90
2022-10-30T10:11:55.249Z,6.80
2022-10-30T10:14:24.702Z,6.82
2022-10-30T10:16:53.891Z,6.15
2022-10-30T10:19:23.425Z,7.28
2022-10-30T10:21:52.606Z,6.43
2022-10-30T10:24:20.759Z,6.60
2022-10-30T10:26:50.860Z,6.22
2022-10-30T10:29:46.051Z,7.18
2022-10-30T10:32:50.065Z,6.82
2022-10-30T10:35:51.718Z,6.80
2022-10-30T10:38:31.925Z,6.68
2022-10-30T10:41:03.478Z,6.55
2022-10-30T10:43:41.485Z,6.45
2022-10-30T10:46:27.568Z,6.40
2022-10-30T10:49:13.140Z,7.10
2022-10-30T10:51:42.392Z,6.70
2022-10-30T10:54:13.341Z,6.90
2022-10-30T10:56:41.909Z,6.88
2022-10-30T10:59:09.058Z,6.55
2022-10-30T11:01:39.548Z,6.30
2022-10-30T11:04:12.137Z,6.55
2022-10-30T11:06:42.182Z,6.40
2022-10-30T11:09:19.525Z,6.78
2022-10-30T11:11:43.357Z,6.97
2022-10-30T11:14:14.767Z,7.03
2022-10-30T11:16:50.570Z,6.47
2022-10-30T11:19:14.217Z,6.95
2022-10-30T11:21:50.324Z,6.45
2022-10-30T11:24:30.528Z,6.72
2022-10-30T11:26:55.293Z,6.38
2022-10-30T11:29:24.797Z,6.72
2022-10-30T11:31:48.358Z,6.60
2022-10-30T11:34:30.406Z,6.47
2022-10-30T11:36:56.369Z,15.73
2022-10-30T11:39:23.698Z,7.13
2022-10-30T11:41:56.503Z,6.68
2022-10-30T11:44:20.130Z,7.15
2022-10-30T11:46:43.753Z,6.70
2022-10-30T11:49:07.411Z,6.95
2022-10-30T11:51:37.583Z,7.00
2022-10-30T11:54:03.444Z,6.55
2022-10-30T11:56:27.459Z,6.68
2022-10-30T11:58:54.293Z,6.38
2022-10-30T12:01:24.320Z,5.75
2022-10-30T12:03:47.959Z,6.13
2022-10-30T12:06:19.262Z,6.60
2022-10-30T12:08:42.841Z,6.40
2022-10-30T12:11:08.165Z,6.43
2022-10-30T12:13:39.137Z,6.80
2022-10-30T12:16:15.965Z,6.47
2022-10-30T12:18:40.981Z,6.43
2022-10-30T12:21:05.375Z,8.05
2022-10-30T12:23:30.665Z,6.63
2022-10-30T12:25:56.148Z,5.78
2022-10-30T12:28:23.401Z,6.78
2022-10-30T12:30:54.475Z,6.43
2022-10-30T12:33:22.246Z,7.30
2022-10-30T12:35:52.423Z,6.30
2022-10-30T12:38:26.341Z,6.30
2022-10-30T12:41:05.105Z,6.88
2022-10-30T12:43:30.734Z,6.38
2022-10-30T12:45:59.579Z,6.38
2022-10-30T12:48:29.409Z,6.30
2022-10-30T12:51:07.189Z,5.97
2022-10-30T12:53:37.368Z,5.93
2022-10-30T12:56:06.573Z,5.90
2022-10-30T12:58:39.518Z,6.57
2022-10-30T13:01:10.645Z,6.35
2022-10-30T13:03:41.261Z,6.57
2022-10-30T13:06:14.052Z,6.43
2022-10-30T13:08:44.004Z,6.20
2022-10-30T13:11:30.127Z,5.78
2022-10-30T13:13:56.718Z,5.90
2022-10-30T13:16:27.643Z,6.63
2022-10-30T13:18:53.138Z,6.10
2022-10-30T13:21:25.666Z,6.85
2022-10-30T13:23:54.903Z,6.28
2022-10-30T13:26:28.580Z,6.95
2022-10-30T13:29:02.625Z,6.07
2022-10-30T13:31:36.560Z,6.47
2022-10-30T13:34:08.221Z,6.28
2022-10-30T13:36:43.274Z,5.97
2022-10-30T13:39:25.597Z,6.15
2022-10-30T13:42:15.985Z,6.10
2022-10-30T13:44:54.060Z,6.07
2022-10-30T13:47:32.109Z,6.13
2022-10-30T13:50:17.325Z,6.55
2022-10-30T13:52:47.562Z,6.28
2022-10-30T13:55:21.313Z,5.80
2022-10-30T13:57:53.248Z,5.78
2022-10-30T14:00:21.415Z,6.82
2022-10-30T14:03:05.053Z,6.35
2022-10-30T14:05:37.748Z,6.18
2022-10-30T14:08:11.089Z,6.38
2022-10-30T14:10:47.053Z,6.38
2022-10-30T14:13:27.341Z,6.15
2022-10-30T14:15:56.574Z,6.57
2022-10-30T14:19:00.643Z,6.25
2022-10-30T14:21:44.295Z,6.82
2022-10-30T14:24:15.597Z,7.30
2022-10-30T14:26:40.177Z,7.30
2022-10-30T14:29:43.710Z,6.68
2022-10-30T14:32:36.982Z,6.32
2022-10-30T14:35:00.729Z,6.72
2022-10-30T14:37:58.189Z,6.78
2022-10-30T14:40:40.292Z,6.47
2022-10-30T14:43:10.796Z,7.30
2022-10-30T14:45:43.551Z,7.53
2022-10-30T14:48:17.365Z,6.85
2022-10-30T14:50:59.323Z,7.45
2022-10-30T14:53:36.393Z,7.85
2022-10-30T14:56:09.893Z,7.10
2022-10-30T14:58:35.727Z,7.72
2022-10-30T15:01:24.851Z,7.50
2022-10-30T15:03:57.441Z,7.50
2022-10-30T15:06:30.871Z,7.70
2022-10-30T15:09:13.837Z,7.72
2022-10-30T15:12:06.910Z,7.22
2022-10-30T15:14:53.575Z,7.60
2022-10-30T15:17:25.667Z,7.28
2022-10-30T15:19:49.479Z,7.78
2022-10-30T15:22:20.513Z,8.00
2022-10-30T15:24:44.098Z,7.63
2022-10-30T15:27:07.738Z,8.70
2022-10-30T15:29:35.372Z,8.45
2022-10-30T15:32:01.354Z,8.82
2022-10-30T15:34:27.831Z,8.40
2022-10-30T15:36:51.565Z,8.70
2022-10-30T15:39:16.977Z,8.98
2022-10-30T15:41:46.361Z,8.95
2022-10-30T15:44:09.995Z,8.73
2022-10-30T15:46:33.689Z,8.98
2022-10-30T15:48:57.717Z,8.57
2022-10-30T15:51:24.775Z,8.65
2022-10-30T15:53:52.378Z,8.38
2022-10-30T15:56:23.640Z,8.68
2022-10-30T15:58:54.329Z,8.70
2022-10-30T16:01:27.819Z,10.27
2022-10-30T16:03:54.357Z,10.05
2022-10-30T16:06:19.117Z,10.77
2022-10-30T16:08:48.950Z,11.10
2022-10-30T16:11:12.735Z,17.05
2022-10-30T16:13:37.373Z,17.98
2022-10-30T16:16:02.436Z,15.95
2022-10-30T16:18:28.915Z,15.68
2022-10-30T16:20:55.065Z,14.52
2022-10-30T16:23:20.108Z,13.23
2022-10-30T16:25:47.401Z,13.10
2022-10-30T16:28:29.091Z,13.45
2022-10-30T16:30:53.386Z,12.57
2022-10-30T16:33:17.359Z,13.13
2022-10-30T16:35:41.334Z,13.15
2022-10-30T16:38:04.979Z,13.15
2022-10-30T16:40:30.436Z,12.82
2022-10-30T16:42:59.291Z,16.00
2022-10-30T16:45:49.092Z,14.90
2022-10-30T16:48:27.691Z,15.80
2022-10-30T16:50:51.365Z,13.52
2022-10-30T16:53:21.578Z,14.63
2022-10-30T16:55:45.349Z,15.18
2022-10-30T16:58:14.631Z,16.77
2022-10-30T17:00:39.709Z,14.45
2022-10-30T17:03:10.371Z,15.50
2022-10-30T17:05:36.947Z,13.27
2022-10-30T17:08:04.249Z,12.77
2022-10-30T17:10:33.786Z,13.50
2022-10-30T17:13:37.226Z,14.30
2022-10-30T17:16:23.344Z,14.73
2022-10-30T17:18:48.057Z,13.70
2022-10-30T17:21:13.929Z,12.98
2022-10-30T17:23:38.114Z,13.73
2022-10-30T17:26:10.302Z,13.68
2022-10-30T17:28:37.419Z,13.77
2022-10-30T17:31:43.564Z,13.93
2022-10-30T17:34:19.106Z,13.73
2022-10-30T17:36:43.128Z,14.07
2022-10-30T17:39:06.861Z,14.20
2022-10-30T17:41:30.627Z,15.98
2022-10-30T17:43:58.015Z,16.30
2022-10-30T17:46:21.591Z,17.15
2022-10-30T17:48:45.105Z,20.38
2022-10-30T17:51:10.545Z,17.10
2022-10-30T17:53:34.071Z,17.05
2022-10-30T17:56:03.772Z,19.23
2022-10-30T17:58:27.334Z,20.25
2022-10-30T18:00:52.663Z,22.95
2022-10-30T18:03:16.298Z,22.70
2022-10-30T18:05:42.365Z,26.95
2022-10-30T18:08:06.402Z,27.02
2022-10-30T18:10:31.127Z,31.77
2022-10-30T18:12:54.647Z,31.30
2022-10-30T18:15:40.929Z,31.38
2022-10-30T18:18:06.701Z,27.63
2022-10-30T18:20:30.713Z,31.17
2022-10-30T18:22:55.601Z,28.73
2022-10-30T18:25:24.365Z,30.23
2022-10-30T18:27:47.934Z,24.10
2022-10-30T18:30:13.978Z,24.88
2022-10-30T18:32:37.549Z,26.80
2022-10-30T18:35:02.508Z,28.20
2022-10-30T18:37:26.074Z,28.33
2022-10-30T18:39:49.594Z,24.02
2022-10-30T18:42:13.161Z,27.98
2022-10-30T18:44:36.755Z,24.27
2022-10-30T18:47:03.160Z,23.13
2022-10-30T18:49:29.211Z,23.73
2022-10-30T18:51:55.117Z,24.08
2022-10-30T18:54:18.782Z,28.02
2022-10-30T18:56:42.372Z,28.67
2022-10-30T18:59:05.901Z,23.13
2022-10-30T19:01:29.655Z,23.98
2022-10-30T19:03:53.255Z,29.38
2022-10-30T19:06:19.394Z,27.35
2022-10-30T19:08:44.341Z,31.35
2022-10-30T19:11:08.322Z,29.02
2022-10-30T19:13:31.868Z,28.98
2022-10-30T19:16:00.419Z,28.00
2022-10-30T19:18:25.913Z,30.63
2022-10-30T19:21:04.061Z,29.70
2022-10-30T19:23:29.274Z,28.50
2022-10-30T19:25:55.059Z,28.23
2022-10-30T19:28:20.774Z,32.25
2022-10-30T19:30:50.117Z,31.42
2022-10-30T19:33:13.718Z,34.95
2022-10-30T19:35:37.424Z,35.63
2022-10-30T19:38:01.420Z,30.42
2022-10-30T19:40:28.368Z,39.00
2022-10-30T19:42:54.310Z,32.35
2022-10-30T19:45:22.135Z,30.23
2022-10-30T19:47:49.599Z,31.70
2022-10-30T19:50:27.269Z,36.90
2022-10-30T19:52:51.545Z,35.78
2022-10-30T19:55:15.289Z,36.40
2022-10-30T19:57:38.830Z,34.58
2022-10-30T20:00:04.051Z,35.72
2022-10-30T20:02:29.871Z,40.10
2022-10-30T20:04:53.465Z,39.17
2022-10-30T20:07:17.540Z,47.15
2022-10-30T20:09:41.107Z,47.35
2022-10-30T20:12:06.094Z,45.70
2022-10-30T20:14:29.603Z,43.85
2022-10-30T20:16:54.553Z,43.92
2022-10-30T20:19:28.712Z,42.40
2022-10-30T20:21:52.277Z,48.97
2022-10-30T20:24:15.781Z,41.53
2022-10-30T20:26:41.107Z,48.42
2022-10-30T20:29:04.723Z,48.67
2022-10-30T20:31:28.323Z,42.85
2022-10-30T20:33:53.411Z,43.00
2022-10-30T20:36:16.972Z,43.40
2022-10-30T20:38:40.870Z,46.22
2022-10-30T20:41:06.261Z,49.47
2022-10-30T20:43:33.139Z,49.78
2022-10-30T20:45:56.842Z,51.75
2022-10-30T20:48:20.401Z,50.40
2022-10-30T20:50:50.325Z,48.95
2022-10-30T20:53:15.167Z,51.05
2022-10-30T20:55:38.824Z,44.40
2022-10-30T20:58:02.660Z,45.33
2022-10-30T21:00:26.460Z,44.17
2022-10-30T21:02:50.069Z,50.22
2022-10-30T21:05:30.567Z,51.03
2022-10-30T21:07:59.562Z,46.17
2022-10-30T21:10:27.833Z,45.60
2022-10-30T21:15:24.218Z,48.55
2022-10-30T21:17:47.818Z,44.05
2022-10-30T21:20:12.606Z,50.53
2022-10-30T21:22:36.194Z,44.90
2022-10-30T21:25:01.080Z,53.55
2022-10-30T21:27:24.677Z,53.53
2022-10-30T21:29:48.218Z,52.35
2022-10-30T21:32:11.759Z,52.35
2022-10-30T21:34:35.394Z,76.15
2022-10-30T21:36:59.327Z,56.15
2022-10-30T21:39:22.809Z,68.30
2022-10-30T21:41:47.760Z,76.93
2022-10-30T21:44:11.559Z,69.43
2022-10-30T21:46:35.217Z,70.13
2022-10-30T21:49:04.258Z,68.82
2022-10-30T21:51:28.658Z,63.35
2022-10-30T21:53:52.605Z,58.15
2022-10-30T21:56:19.553Z,50.90
2022-10-30T21:58:44.806Z,53.55
2022-10-30T22:01:08.757Z,55.92
2022-10-30T22:03:33.132Z,58.90
2022-10-30T22:05:56.974Z,57.35
2022-10-30T22:08:20.858Z,59.00
2022-10-30T22:10:44.478Z,60.33
2022-10-30T22:13:08.050Z,57.90
2022-10-30T22:15:33.047Z,53.00
2022-10-30T22:17:56.747Z,53.83
2022-10-30T22:20:20.521Z,56.92
2022-10-30T22:22:44.021Z,52.97
2022-10-30T22:25:08.065Z,51.03
2022-10-30T22:27:31.598Z,51.83
2022-10-30T22:29:55.201Z,56.72
2022-10-30T22:32:20.094Z,58.75
2022-10-30T22:34:43.665Z,58.55
2022-10-30T22:37:07.338Z,57.90
2022-10-30T22:39:30.885Z,56.90
2022-10-30T22:41:54.507Z,59.40
2022-10-30T22:44:19.008Z,59.50
2022-10-30T22:46:42.749Z,60.60
2022-10-30T22:49:08.693Z,61.30
2022-10-30T22:51:34.157Z,57.03
2022-10-30T22:53:59.965Z,55.05
2022-10-30T22:56:26.196Z,56.45
2022-10-30T22:58:51.677Z,54.80
2022-10-30T23:01:17.675Z,51.85
2022-10-30T23:03:41.944Z,53.20
2022-10-30T23:06:07.134Z,52.95
2022-10-30T23:08:30.972Z,54.47
2022-10-30T23:10:54.834Z,56.05
2022-10-30T23:13:18.457Z,58.42
2022-10-30T23:15:41.994Z,58.33
2022-10-30T23:18:06.001Z,53.25
2022-10-30T23:20:29.631Z,49.28
2022-10-30T23:22:54.592Z,48.65
2022-10-30T23:25:18.312Z,56.95
2022-10-30T23:27:41.870Z,46.13
2022-10-30T23:30:06.457Z,51.75
2022-10-30T23:32:30.054Z,52.65
2022-10-30T23:34:53.582Z,54.60
2022-10-30T23:37:17.175Z,50.33
2022-10-30T23:39:42.132Z,49.40
2022-10-30T23:42:05.874Z,44.38
2022-10-30T23:44:29.546Z,46.00
2022-10-30T23:46:53.462Z,47.97
2022-10-30T23:49:17.252Z,51.22
2022-10-30T23:51:40.886Z,54.80
2022-10-30T23:54:05.053Z,55.20
2022-10-30T23:56:30.645Z,49.08
2022-10-30T23:58:54.546Z,45.22
